KMLI

Quad City International Airport

Moline, Illinois, USA
METAR KMLI 180152Z 00000KT 10SM CLR 24/20 A2999 RMK AO2 SLP151 T02440200
Observed Flight Rules
Aug-18 @ 01:52 UTC (36 minutes ago) Visual Flight Rules
Visibility Clouds
10 miles
  • Clear skies
Temperatures Readings
Current 24°C / 75°F
Dewpoint 20°C / 68°F
Humidity 78%
Altimeter 29.99" Hg
Pressure 1015.1 hPa
Elevation 184
METAR KMLI 180152Z 00000KT 10SM CLR 24/20 A2999 RMK AO2 SLP151 T02440200
Observed Flight Rules
Aug-18 @ 01:52 UTC
(36 minutes ago)
VFR
Clouds
  • Clear skies
Temperature Dewpoint
24°C / 75°F 20°C / 68°F
Humidity Altimeter Pressure
78% 29.99" Hg 1015.1 hPa